createdAt,value
2023-01-04T00:01:56.144Z,12.70
2023-01-04T00:39:12.865Z,12.30
2023-01-04T01:35:08.338Z,7.20
2023-01-04T01:53:45.297Z,10.30
2023-01-04T02:12:24.302Z,10.80
2023-01-04T02:31:03.216Z,9.90
2023-01-04T02:49:42.496Z,25.20
2023-01-04T03:08:22.642Z,131.50
2023-01-04T03:27:00.734Z,77.50
2023-01-04T03:45:43.815Z,205.40
2023-01-04T04:04:17.937Z,150.10
2023-01-04T04:22:56.082Z,40.20
2023-01-04T04:41:36.026Z,63.10
2023-01-04T05:00:13.699Z,161.20
2023-01-04T05:18:54.238Z,49.00
2023-01-04T05:37:33.551Z,126.50
2023-01-04T05:56:15.790Z,106.60
2023-01-04T06:14:54.666Z,83.80
2023-01-04T06:33:31.243Z,6.60
2023-01-04T06:52:10.859Z,12.10
2023-01-04T07:10:51.101Z,11.90
2023-01-04T07:29:35.262Z,21.70
2023-01-04T07:48:10.787Z,11.90
2023-01-04T08:06:51.768Z,11.20
2023-01-04T08:25:33.454Z,18.20
2023-01-04T08:44:14.049Z,12.10
2023-01-04T09:02:57.640Z,17.20
2023-01-04T09:21:33.843Z,8.10
2023-01-04T09:59:06.954Z,9.50
2023-01-04T10:36:46.126Z,4.40
2023-01-04T10:55:37.476Z,3.80
2023-01-04T11:14:23.890Z,4.50
2023-01-04T11:33:10.142Z,5.10
2023-01-04T11:51:53.752Z,6.60
2023-01-04T12:10:36.212Z,3.50
2023-01-04T12:47:54.319Z,3.50
2023-01-04T13:06:36.955Z,2.50
2023-01-04T13:25:12.172Z,2.50
2023-01-04T14:02:31.963Z,2.90
2023-01-04T14:21:14.500Z,5.80
2023-01-04T14:39:36.832Z,4.30
2023-01-04T15:16:34.334Z,9.00
2023-01-04T15:53:45.472Z,6.80
2023-01-04T16:12:21.734Z,12.60
2023-01-04T16:31:01.238Z,19.00
2023-01-04T16:49:39.652Z,10.50
2023-01-04T17:08:26.807Z,24.80
2023-01-04T17:26:57.400Z,9.90
2023-01-04T17:45:35.238Z,20.30
2023-01-04T18:04:14.019Z,9.50
2023-01-04T18:22:58.357Z,16.80
2023-01-04T19:18:47.382Z,12.40
2023-01-04T19:37:22.768Z,7.30
2023-01-04T19:56:00.800Z,8.40
2023-01-04T20:14:41.725Z,10.20
2023-01-04T20:33:19.013Z,6.30
2023-01-04T21:10:39.768Z,5.40
2023-01-04T21:47:50.672Z,15.10
2023-01-04T22:06:28.950Z,4.50
2023-01-04T22:25:09.058Z,4.30
2023-01-04T22:43:57.141Z,2.70
2023-01-04T23:02:28.832Z,4.40
2023-01-04T23:21:09.484Z,4.60
2023-01-04T23:39:46.298Z,3.80
2023-01-04T23:58:29.339Z,4.10
